Time;durP1;ratioP1;P1;durP2;ratioP2;P2;SDS_P1;SDS_P2;PMS_P1;PMS_P2;Temp;Humidity;BMP_temperature;BMP_pressure;BME280_temperature;BME280_humidity;BME280_pressure;Samples;Min_cycle;Max_cycle;Signal;HPM_P1;HPM_P2
2021/03/25 00:00:36;;;;;;;8.70;3.55;;;;;;;1.91;48.34;100528.66;1695760;84;21159;-59
2021/03/25 00:03:09;;;;;;;9.08;3.87;;;;;;;1.91;48.37;100522.41;1695595;84;21210;-59
2021/03/25 00:05:38;;;;;;;8.03;3.47;;;;;;;1.90;48.30;100524.25;1695751;84;21211;-60
2021/03/25 00:08:07;;;;;;;7.50;3.55;;;;;;;1.90;48.23;100522.05;1695739;84;21198;-59
2021/03/25 00:10:36;;;;;;;6.65;3.20;;;;;;;1.88;48.26;100518.63;1695772;84;21191;-59
2021/03/25 00:13:05;;;;;;;6.60;3.90;;;;;;;1.87;48.22;100511.52;1695645;84;21208;-59
2021/03/25 00:15:35;;;;;;;6.42;3.72;;;;;;;1.85;48.17;100513.51;1695723;84;21155;-59
2021/03/25 00:18:03;;;;;;;6.80;3.40;;;;;;;1.87;48.25;100517.78;1695609;84;21206;-59
2021/03/25 00:20:32;;;;;;;7.53;3.65;;;;;;;1.89;48.11;100511.74;1695787;84;21199;-60
2021/03/25 00:23:00;;;;;;;7.37;3.50;;;;;;;1.86;48.14;100511.16;1694137;84;21167;-59
2021/03/25 00:25:32;;;;;;;7.45;3.60;;;;;;;1.84;48.11;100503.20;1653623;86;21134;-60
2021/03/25 00:27:59;;;;;;;9.08;3.47;;;;;;;1.84;48.13;100515.85;1654017;85;21289;-59
2021/03/25 00:30:30;;;;;;;6.75;3.70;;;;;;;1.85;48.21;100514.86;1653745;86;21336;-61
2021/03/25 00:32:59;;;;;;;11.33;3.75;;;;;;;1.86;48.20;100512.02;1653791;85;21181;-60
2021/03/25 00:35:28;;;;;;;7.58;3.50;;;;;;;1.87;48.23;100510.17;1653753;86;21173;-59
2021/03/25 00:37:55;;;;;;;7.87;3.70;;;;;;;1.88;48.23;100510.53;1653712;85;21297;-59
2021/03/25 00:40:25;;;;;;;8.13;3.62;;;;;;;1.85;48.20;100512.16;1651756;85;21902;-59
2021/03/25 00:42:53;;;;;;;7.00;3.65;;;;;;;1.82;48.25;100505.68;1653666;86;21411;-60
2021/03/25 00:45:29;;;;;;;9.10;3.80;;;;;;;1.82;48.38;100507.89;1653639;86;21177;-59
2021/03/25 00:47:57;;;;;;;7.62;3.65;;;;;;;1.85;48.49;100508.11;1653365;86;21975;-59
2021/03/25 00:50:38;;;;;;;6.60;3.42;;;;;;;1.90;48.45;100507.19;1653862;85;21138;-61
2021/03/25 00:53:07;;;;;;;7.87;3.37;;;;;;;1.91;48.58;100505.70;1630802;86;21169;-59
2021/03/25 00:55:36;;;;;;;7.20;2.95;;;;;;;1.94;48.60;100507.27;1653653;85;21200;-59
2021/03/25 00:58:03;;;;;;;5.70;2.60;;;;;;;1.95;48.62;100504.95;1653637;85;21229;-59
2021/03/25 01:00:35;;;;;;;8.55;3.42;;;;;;;1.93;48.67;100504.21;1658235;85;21142;-60
2021/03/25 01:03:03;;;;;;;8.50;2.92;;;;;;;1.90;48.75;100509.39;1658064;85;21166;-59
2021/03/25 01:05:30;;;;;;;9.53;3.17;;;;;;;1.89;48.95;100510.89;1658153;85;21166;-60
2021/03/25 01:07:58;;;;;;;6.50;3.15;;;;;;;1.88;49.12;100515.94;1658075;86;21126;-60
2021/03/25 01:10:32;;;;;;;5.12;2.60;;;;;;;1.88;49.21;100511.87;1658223;86;21173;-59
2021/03/25 01:13:00;;;;;;;6.62;2.98;;;;;;;1.90;49.35;100512.59;1659536;85;21173;-59
2021/03/25 01:15:28;;;;;;;6.95;3.10;;;;;;;1.90;49.48;100510.75;1639132;86;21186;-62
2021/03/25 01:17:59;;;;;;;8.25;3.40;;;;;;;1.90;49.47;100512.09;1665426;84;21114;-62
2021/03/25 01:20:38;;;;;;;6.33;3.20;;;;;;;1.92;49.52;100510.61;1665883;85;21153;-59
2021/03/25 01:23:06;;;;;;;5.28;2.65;;;;;;;1.96;49.56;100510.72;1612861;87;21164;-59
2021/03/25 01:25:34;;;;;;;5.95;3.05;;;;;;;1.97;49.61;100509.72;1612856;89;21153;-60
2021/03/25 01:28:04;;;;;;;6.55;2.90;;;;;;;1.98;49.67;100508.73;1587061;89;21240;-61
2021/03/25 01:30:32;;;;;;;6.28;3.58;;;;;;;1.97;49.98;100504.32;1586803;89;21242;-61
2021/03/25 01:33:00;;;;;;;7.00;3.08;;;;;;;1.94;50.25;100507.77;1612993;87;21602;-59
2021/03/25 01:35:29;;;;;;;7.03;2.85;;;;;;;1.91;50.64;100517.00;1612994;87;21139;-61
2021/03/25 01:37:56;;;;;;;7.08;3.12;;;;;;;1.91;50.98;100510.25;1587997;89;21145;-58
2021/03/25 01:40:32;;;;;;;4.95;2.52;;;;;;;1.90;51.40;100505.34;1612980;87;21169;-59
2021/03/25 01:43:37;;;;;;;5.17;2.70;;;;;;;1.89;51.71;100513.59;1613012;88;21585;-61
2021/03/25 01:46:36;;;;;;;7.37;2.55;;;;;;;1.87;51.97;100509.67;1612980;88;21165;-59
2021/03/25 01:49:09;;;;;;;6.22;3.08;;;;;;;1.84;52.43;100507.75;1613111;89;21591;-61
2021/03/25 01:52:22;;;;;;;5.70;2.92;;;;;;;1.79;52.83;100510.02;1613111;88;21220;-60
2021/03/25 01:55:30;;;;;;;6.40;2.98;;;;;;;1.76;53.01;100509.80;1612961;89;21251;-59
2021/03/25 01:58:21;;;;;;;8.60;3.17;;;;;;;1.75;53.21;100514.84;1612989;87;21607;-61
2021/03/25 02:01:12;;;;;;;6.42;2.65;;;;;;;1.72;53.32;100512.41;1612982;89;21189;-61
2021/03/25 02:04:08;;;;;;;6.28;2.95;;;;;;;1.72;53.30;100512.91;1612905;87;21560;-61
2021/03/25 02:06:47;;;;;;;6.35;2.77;;;;;;;1.73;53.41;100517.32;1612984;89;21129;-60
2021/03/25 02:09:32;;;;;;;5.35;2.87;;;;;;;1.74;53.56;100515.83;1613037;87;21122;-58
2021/03/25 02:12:45;;;;;;;6.87;2.80;;;;;;;1.70;53.89;100512.19;1610185;89;21157;-59
2021/03/25 02:15:39;;;;;;;4.53;2.58;;;;;;;1.67;54.13;100507.92;1605987;88;21173;-59
2021/03/25 02:18:24;;;;;;;5.03;2.77;;;;;;;1.66;54.25;100511.62;1605984;89;21165;-59
2021/03/25 08:52:44;;;;;;;3.25;1.47;;;;;;;6.28;34.62;100544.36;1751635;77;22188;-60
2021/03/25 08:55:32;;;;;;;6.75;2.30;;;;;;;6.33;34.19;100533.83;1697862;83;21176;-60
2021/03/25 08:58:06;;;;;;;4.97;2.35;;;;;;;6.40;33.76;100540.81;1714491;83;21171;-60
2021/03/25 09:00:35;;;;;;;7.10;1.92;;;;;;;6.44;33.98;100523.98;1725752;83;21139;-59
2021/03/25 09:03:42;;;;;;;4.58;1.70;;;;;;;6.52;33.89;100530.83;1714560;81;21148;-59
2021/03/25 09:06:20;;;;;;;5.55;1.82;;;;;;;6.55;33.67;100526.92;1709884;83;21239;-60
2021/03/25 09:08:51;;;;;;;2.75;1.42;;;;;;;6.55;33.39;100517.39;1699155;83;21177;-61
2021/03/25 09:11:19;;;;;;;2.87;1.65;;;;;;;6.62;33.30;100512.97;1725377;83;21971;-61
2021/03/25 09:13:57;;;;;;;3.47;1.77;;;;;;;6.67;32.95;100519.61;1723951;83;21949;-60
2021/03/25 09:16:34;;;;;;;4.22;1.40;;;;;;;6.78;32.97;100515.70;1724135;83;22094;-59
2021/03/25 09:19:06;;;;;;;4.25;2.00;;;;;;;7.03;32.52;100522.48;1723950;83;21454;-58
2021/03/25 09:21:34;;;;;;;3.00;1.82;;;;;;;7.03;32.52;100522.48;1706691;83;21416;-61
2021/03/25 09:24:07;;;;;;;3.10;1.52;;;;;;;7.08;32.07;100525.03;1713991;83;21205;-59
2021/03/25 09:26:45;;;;;;;4.92;2.08;;;;;;;7.11;32.27;100512.94;1720437;82;21488;-60
2021/03/25 09:29:14;;;;;;;4.45;1.40;;;;;;;7.21;31.86;100510.91;1719906;83;21169;-60
2021/03/25 09:32:00;;;;;;;4.47;1.45;;;;;;;7.29;30.94;100508.17;1720520;83;21146;-60
2021/03/25 09:34:49;;;;;;;4.72;1.60;;;;;;;7.34;31.28;100510.38;1720811;83;21189;-59
2021/03/25 09:37:23;;;;;;;4.40;1.70;;;;;;;7.47;31.21;100516.13;1721119;82;21470;-60
2021/03/25 09:40:34;;;;;;;2.85;1.50;;;;;;;7.57;30.83;100518.99;1720438;83;21174;-61
2021/03/25 09:43:29;;;;;;;4.50;1.60;;;;;;;7.62;30.75;100514.38;1719609;83;21151;-62
2021/03/25 09:45:57;;;;;;;4.67;1.92;;;;;;;7.67;30.20;100503.79;1720481;83;21418;-62
2021/03/25 09:48:27;;;;;;;4.00;1.92;;;;;;;7.78;30.30;100497.09;1685473;83;21200;-61
2021/03/25 09:51:07;;;;;;;3.40;1.52;;;;;;;7.91;29.78;100503.72;1693780;83;21347;-61
2021/03/25 09:53:55;;;;;;;3.33;1.75;;;;;;;8.01;29.28;100501.28;1688879;82;21217;-59
2021/03/25 09:56:28;;;;;;;3.77;1.57;;;;;;;7.95;28.83;100497.38;1700510;84;21130;-60
2021/03/25 09:58:59;;;;;;;4.85;1.35;;;;;;;7.93;28.87;100506.27;1709188;82;21227;-61
2021/03/25 10:01:55;;;;;;;5.58;1.57;;;;;;;7.91;28.64;100503.72;1708206;84;21437;-61
2021/03/25 10:04:38;;;;;;;3.22;1.67;;;;;;;7.93;28.98;100509.84;1707405;84;22039;-62
2021/03/25 10:07:20;;;;;;;3.33;1.75;;;;;;;7.97;28.85;100508.13;1708012;84;21170;-59
2021/03/25 10:09:54;;;;;;;4.25;1.90;;;;;;;8.00;29.16;100508.61;1705693;82;21191;-60
2021/03/25 10:13:12;;;;;;;4.28;2.35;;;;;;;8.07;28.90;100504.14;1705673;83;21695;-62
2021/03/25 10:15:43;;;;;;;3.27;1.57;;;;;;;8.17;28.86;100508.86;1696298;82;21444;-62
2021/03/25 10:18:28;;;;;;;3.77;1.90;;;;;;;8.24;28.33;100515.81;1703591;83;21244;-63
2021/03/25 10:21:07;;;;;;;4.15;1.75;;;;;;;8.26;28.39;100511.02;1709483;83;21269;-64
2021/03/25 10:23:54;;;;;;;3.10;1.30;;;;;;;8.30;28.70;100501.45;1704728;84;21222;-62
2021/03/25 10:26:42;;;;;;;3.85;1.45;;;;;;;8.40;28.82;100510.28;1707117;83;21244;-59
2021/03/25 10:29:14;;;;;;;5.15;1.72;;;;;;;8.53;28.71;100507.83;1707501;84;21186;-58
2021/03/25 10:31:57;;;;;;;5.70;2.08;;;;;;;8.65;28.54;100500.06;1697765;83;21457;-62
2021/03/25 10:34:40;;;;;;;6.30;1.98;;;;;;;8.77;28.30;100499.95;1701726;84;21436;-60
2021/03/25 10:37:38;;;;;;;7.47;1.90;;;;;;;8.80;28.04;100498.73;1699017;82;21228;-60
2021/03/25 10:40:26;;;;;;;7.58;1.90;;;;;;;8.77;28.27;100496.38;1681176;84;21363;-60
2021/03/25 10:43:01;;;;;;;3.40;1.70;;;;;;;8.75;28.09;100492.98;1644553;87;21261;-61
2021/03/25 10:45:53;;;;;;;3.33;1.90;;;;;;;8.80;28.24;100494.64;1675126;85;21353;-58
2021/03/25 10:48:34;;;;;;;3.52;1.80;;;;;;;8.89;28.08;100501.22;1644460;85;21246;-60
2021/03/25 10:51:18;;;;;;;5.83;2.00;;;;;;;8.98;27.89;100494.31;1641297;85;21166;-60
2021/03/25 10:53:52;;;;;;;4.40;1.72;;;;;;;8.97;27.66;100483.89;1652020;84;21287;-60
2021/03/25 10:56:41;;;;;;;3.47;1.95;;;;;;;8.99;27.45;100493.27;1654639;84;21582;-60
2021/03/25 10:59:17;;;;;;;3.33;1.67;;;;;;;9.02;27.83;100481.45;1661661;84;21173;-61
2021/03/25 11:01:57;;;;;;;4.33;1.98;;;;;;;9.11;27.71;100476.27;1654682;84;21431;-59
2021/03/25 11:04:30;;;;;;;3.33;1.72;;;;;;;9.19;27.76;100483.02;1670118;84;21965;-59
2021/03/25 11:07:14;;;;;;;2.77;1.52;;;;;;;9.26;27.34;100472.19;1659205;84;21830;-59
2021/03/25 11:09:57;;;;;;;7.20;1.98;;;;;;;9.25;27.10;100476.47;1649634;86;21197;-60
2021/03/25 11:12:29;;;;;;;4.10;1.80;;;;;;;9.29;27.23;100473.17;1672401;84;21417;-59
2021/03/25 11:15:01;;;;;;;3.30;1.80;;;;;;;9.38;27.42;100476.67;1654778;84;21241;-60
2021/03/25 11:17:32;;;;;;;8.35;2.25;;;;;;;9.51;27.03;100472.23;1666644;84;21487;-60
2021/03/25 11:20:03;;;;;;;6.62;1.95;;;;;;;9.63;26.96;100470.39;1635878;84;21498;-59
2021/03/25 11:22:32;;;;;;;4.87;2.17;;;;;;;9.75;26.51;100466.12;1674834;85;21440;-58
2021/03/25 11:25:05;;;;;;;4.75;1.85;;;;;;;9.78;25.59;100465.78;1677067;84;21433;-60
2021/03/25 11:27:32;;;;;;;3.08;1.80;;;;;;;9.68;25.98;100462.46;1639022;86;21603;-58
2021/03/25 11:30:26;;;;;;;4.62;1.87;;;;;;;9.61;25.87;100453.31;1655901;85;21221;-61
2021/03/25 11:32:55;;;;;;;4.58;2.00;;;;;;;9.60;26.29;100454.35;1637685;86;21373;-60
2021/03/25 11:35:37;;;;;;;5.30;1.70;;;;;;;9.72;26.43;100451.46;1651333;85;21359;-60
2021/03/25 11:38:30;;;;;;;4.03;1.70;;;;;;;9.89;26.71;100461.70;1640411;86;21459;-60
2021/03/25 11:41:11;;;;;;;5.17;1.65;;;;;;;10.10;26.00;100451.64;1635885;86;21774;-60
2021/03/25 11:43:55;;;;;;;2.40;1.82;;;;;;;10.15;25.60;100443.70;1649618;86;21305;-61
2021/03/25 11:46:40;;;;;;;5.42;1.87;;;;;;;10.08;25.48;100454.25;1651095;86;21193;-59
2021/03/25 11:49:20;;;;;;;3.62;1.40;;;;;;;9.99;26.08;100455.41;1650035;84;21196;-60
2021/03/25 11:51:58;;;;;;;6.42;2.00;;;;;;;10.07;25.95;100445.19;1655686;84;21441;-59
2021/03/25 11:54:35;;;;;;;3.25;1.50;;;;;;;10.07;26.15;100453.92;1645504;85;21410;-60
2021/03/25 11:57:26;;;;;;;3.67;1.40;;;;;;;10.17;26.04;100446.23;1654027;86;21176;-59
2021/03/25 12:00:12;;;;;;;7.75;2.45;;;;;;;10.33;25.86;100451.50;1652982;85;22467;-60
2021/03/25 12:02:42;;;;;;;3.08;1.60;;;;;;;10.38;25.78;100444.91;1649370;86;21177;-60
2021/03/25 12:05:38;;;;;;;2.83;1.70;;;;;;;10.43;25.85;100442.47;1654292;85;21226;-61
2021/03/25 12:08:21;;;;;;;4.47;1.90;;;;;;;10.56;25.74;100433.52;1654705;86;22208;-60
2021/03/25 12:11:09;;;;;;;4.45;1.60;;;;;;;10.65;25.39;100437.82;1653144;85;21173;-60
2021/03/25 12:13:38;;;;;;;3.62;1.77;;;;;;;10.68;25.56;100439.32;1647967;86;21173;-61
2021/03/25 12:16:09;;;;;;;3.50;1.77;;;;;;;10.84;25.68;100440.92;1655108;85;21269;-62
2021/03/25 12:18:39;;;;;;;11.03;2.27;;;;;;;10.94;25.03;100439.53;1645849;86;21286;-61
2021/03/25 12:21:10;;;;;;;2.60;1.62;;;;;;;10.94;24.97;100433.20;1642582;86;21219;-62
2021/03/25 12:23:40;;;;;;;2.55;1.50;;;;;;;10.92;24.64;100435.30;1663396;85;21179;-61
2021/03/25 12:26:12;;;;;;;4.55;1.70;;;;;;;10.91;24.63;100431.70;1650367;85;21852;-61
2021/03/25 12:28:40;;;;;;;3.90;1.55;;;;;;;10.90;24.64;100429.16;1651633;85;21434;-60
2021/03/25 12:31:07;;;;;;;4.75;1.45;;;;;;;10.89;24.71;100431.58;1646535;85;21388;-61
2021/03/25 12:33:37;;;;;;;6.45;1.70;;;;;;;10.92;24.30;100437.52;1654441;85;21228;-60
2021/03/25 12:36:07;;;;;;;7.20;2.27;;;;;;;10.87;24.71;100430.41;1649738;85;21217;-60
2021/03/25 12:38:35;;;;;;;4.80;1.98;;;;;;;10.89;24.48;100438.44;1643907;86;21191;-62
2021/03/25 12:41:04;;;;;;;3.20;1.85;;;;;;;10.82;24.50;100430.16;1632936;86;21340;-63
2021/03/25 12:43:33;;;;;;;4.58;1.90;;;;;;;10.77;24.72;100427.17;1636997;86;21242;-62
2021/03/25 12:46:08;;;;;;;4.62;1.90;;;;;;;10.74;24.66;100413.34;1654859;86;21163;-62
2021/03/25 12:48:36;;;;;;;5.40;1.87;;;;;;;10.67;24.64;100432.14;1615477;88;21447;-62
2021/03/25 12:51:07;;;;;;;7.90;1.60;;;;;;;10.63;24.74;100427.58;1646670;85;21142;-62
2021/03/25 12:53:35;;;;;;;5.15;1.75;;;;;;;10.56;24.87;100416.23;1659706;85;21856;-62
2021/03/25 12:56:03;;;;;;;6.05;2.20;;;;;;;10.55;25.10;100412.66;1670047;84;21203;-61
2021/03/25 12:58:37;;;;;;;7.97;2.95;;;;;;;10.56;24.99;100412.12;1665923;86;21396;-60
2021/03/25 13:01:21;;;;;;;5.92;1.90;;;;;;;10.56;24.95;100411.61;1648268;86;21191;-61
2021/03/25 13:03:48;;;;;;;4.62;2.10;;;;;;;10.55;24.96;100407.69;1635779;86;21483;-60
2021/03/25 13:06:16;;;;;;;3.45;1.65;;;;;;;10.54;25.15;100410.11;1663806;84;21159;-62
2021/03/25 13:08:44;;;;;;;2.52;1.60;;;;;;;10.57;24.89;100406.98;1669751;84;21151;-63
2021/03/25 13:11:17;;;;;;;2.90;1.72;;;;;;;10.49;24.93;100409.33;1645909;86;21187;-63
2021/03/25 13:13:45;;;;;;;3.47;1.57;;;;;;;10.50;24.94;100410.17;1668541;84;21171;-61
2021/03/25 13:16:14;;;;;;;4.62;1.70;;;;;;;10.51;24.89;100411.35;1669189;86;21301;-65
2021/03/25 13:18:43;;;;;;;6.25;1.77;;;;;;;10.45;24.74;100410.77;1672449;84;21344;-62
2021/03/25 13:21:12;;;;;;;3.98;1.80;;;;;;;10.41;24.64;100409.47;1669022;84;21345;-62
2021/03/25 13:23:39;;;;;;;4.47;2.15;;;;;;;10.29;24.53;100407.74;1639702;86;21569;-61
2021/03/25 13:26:09;;;;;;;5.12;2.30;;;;;;;10.21;24.90;100405.66;1660157;84;21399;-62
2021/03/25 13:28:39;;;;;;;8.30;2.27;;;;;;;10.22;24.59;100408.20;1665128;84;21218;-63
2021/03/25 13:31:07;;;;;;;4.33;1.98;;;;;;;10.14;24.54;100404.19;1669894;85;21549;-65
2021/03/25 13:33:35;;;;;;;7.78;2.00;;;;;;;10.04;24.47;100403.66;1669181;84;21364;-67
2021/03/25 13:36:25;;;;;;;6.17;1.95;;;;;;;9.99;24.60;100400.66;1633496;85;21166;-65
2021/03/25 13:38:53;;;;;;;7.53;2.45;;;;;;;10.00;24.93;100394.14;1617425;87;21181;-61
2021/03/25 13:41:20;;;;;;;6.22;2.40;;;;;;;10.04;24.69;100399.55;1629610;86;21337;-61
2021/03/25 13:43:47;;;;;;;8.13;2.22;;;;;;;10.05;24.62;100398.52;1652890;86;21468;-61
2021/03/25 13:46:15;;;;;;;11.80;2.77;;;;;;;10.05;24.54;100408.09;1649819;85;21442;-62
2021/03/25 13:48:45;;;;;;;6.58;1.92;;;;;;;10.04;24.44;100407.25;1645578;86;21169;-63
2021/03/25 13:51:13;;;;;;;5.15;1.70;;;;;;;10.02;24.48;100398.91;1635404;87;21354;-61
2021/03/25 13:53:40;;;;;;;5.03;2.05;;;;;;;10.02;24.51;100390.69;1649916;86;21184;-61
2021/03/25 13:56:09;;;;;;;8.95;1.92;;;;;;;10.06;24.74;100395.58;1626722;88;21217;-60
2021/03/25 13:58:38;;;;;;;3.80;1.80;;;;;;;10.14;24.55;100398.71;1649174;86;21185;-61
2021/03/25 14:01:06;;;;;;;6.72;3.33;;;;;;;10.18;24.55;100391.80;1634510;86;21202;-61
2021/03/25 14:03:34;;;;;;;4.60;1.92;;;;;;;10.23;24.66;100380.30;1644645;85;21169;-61
2021/03/25 14:06:01;;;;;;;5.28;2.08;;;;;;;10.31;24.59;100385.64;1651666;85;21392;-61
2021/03/25 14:08:29;;;;;;;7.70;2.72;;;;;;;10.37;24.43;100385.70;1626419;86;21419;-60
2021/03/25 14:10:58;;;;;;;6.33;2.70;;;;;;;10.39;24.33;100382.24;1611485;89;21313;-61
2021/03/25 14:13:27;;;;;;;5.20;2.08;;;;;;;10.41;24.39;100384.81;1640569;86;22037;-63
2021/03/25 14:15:55;;;;;;;3.67;2.05;;;;;;;10.54;24.33;100371.75;1688254;85;21267;-64
2021/03/25 14:18:25;;;;;;;3.15;1.60;;;;;;;10.65;24.18;100374.80;1688011;85;21826;-61
2021/03/25 14:20:57;;;;;;;4.37;1.90;;;;;;;10.79;24.21;100382.59;1656971;85;21223;-61
2021/03/25 14:23:25;;;;;;;4.35;1.92;;;;;;;10.97;23.84;100383.45;1653227;86;21553;-61
2021/03/25 14:25:53;;;;;;;4.45;2.05;;;;;;;11.13;23.57;100391.40;1641524;85;21428;-60
2021/03/25 14:28:27;;;;;;;9.25;2.52;;;;;;;11.29;23.48;100380.63;1659692;86;21196;-61
2021/03/25 14:30:55;;;;;;;6.75;2.20;;;;;;;11.54;23.23;100385.06;1657795;86;21352;-61
2021/03/25 14:33:25;;;;;;;6.65;2.30;;;;;;;11.86;23.00;100380.81;1664005;85;21312;-62
2021/03/25 14:35:53;;;;;;;4.62;2.15;;;;;;;12.12;22.76;100386.37;1663766;85;21379;-61
2021/03/25 14:38:22;;;;;;;9.05;2.60;;;;;;;12.22;22.71;100381.32;1670777;84;21248;-62
2021/03/25 14:40:51;;;;;;;8.43;2.17;;;;;;;12.29;22.38;100381.33;1680201;84;21202;-63
2021/03/25 14:43:20;;;;;;;6.08;2.22;;;;;;;12.18;22.10;100383.32;1688882;84;21415;-63
2021/03/25 14:45:49;;;;;;;12.30;2.70;;;;;;;11.92;22.35;100382.73;1697403;83;21511;-62
2021/03/25 14:48:18;;;;;;;12.25;2.55;;;;;;;11.78;22.56;100379.63;1695839;83;21403;-62
2021/03/25 14:50:48;;;;;;;6.97;2.50;;;;;;;11.62;22.61;100377.50;1695900;83;21941;-62
2021/03/25 14:53:16;;;;;;;10.08;2.20;;;;;;;11.47;22.59;100381.45;1700257;83;21592;-65
2021/03/25 14:55:43;;;;;;;6.67;2.40;;;;;;;11.32;22.73;100381.59;1693375;84;21366;-63
2021/03/25 14:58:10;;;;;;;7.15;2.12;;;;;;;11.33;22.38;100382.75;1699472;84;21200;-62
2021/03/25 15:00:47;;;;;;;8.35;2.47;;;;;;;11.39;22.56;100385.21;1704135;83;21145;-63
2021/03/25 15:03:26;;;;;;;5.28;2.30;;;;;;;11.49;22.54;100389.80;1711003;82;21996;-62
2021/03/25 15:05:55;;;;;;;5.58;2.25;;;;;;;11.48;22.50;100392.22;1696039;83;21158;-64
2021/03/25 15:08:24;;;;;;;8.48;2.75;;;;;;;11.38;22.83;100394.49;1709669;83;21317;-61
2021/03/25 15:10:56;;;;;;;7.65;2.83;;;;;;;11.34;22.80;100391.83;1707912;81;21260;-62
2021/03/25 15:13:25;;;;;;;10.55;3.12;;;;;;;11.20;22.72;100385.95;1699155;84;21960;-61
2021/03/25 15:15:54;;;;;;;5.60;2.52;;;;;;;11.08;23.00;100397.48;1698541;83;21153;-61
2021/03/25 15:18:22;;;;;;;6.58;2.25;;;;;;;11.02;23.01;100396.04;1700541;84;21453;-63
2021/03/25 15:20:51;;;;;;;6.90;2.87;;;;;;;10.92;23.09;100401.03;1700973;83;21208;-63
2021/03/25 15:23:29;;;;;;;7.70;2.50;;;;;;;10.80;23.10;100400.73;1699899;84;21171;-63
2021/03/25 15:26:00;;;;;;;11.88;3.00;;;;;;;10.68;23.19;100396.84;1714347;82;21153;-61
2021/03/25 15:28:31;;;;;;;11.15;3.12;;;;;;;10.63;23.28;100400.70;1694889;84;21266;-62
2021/03/25 15:30:59;;;;;;;12.88;3.42;;;;;;;10.72;23.32;100399.52;1698108;84;21149;-61
2021/03/25 15:33:26;;;;;;;10.40;3.00;;;;;;;10.90;23.24;100405.87;1697444;84;21428;-62
2021/03/25 15:35:56;;;;;;;8.73;3.22;;;;;;;11.01;23.15;100400.67;1693945;84;21165;-62
2021/03/25 15:38:28;;;;;;;9.50;3.17;;;;;;;10.95;23.01;100404.22;1695763;84;21316;-63
2021/03/25 15:40:58;;;;;;;9.83;3.58;;;;;;;10.80;22.95;100404.84;1698653;83;21234;-60
2021/03/25 15:43:28;;;;;;;7.33;3.30;;;;;;;10.51;23.19;100400.92;1687073;83;21991;-60
2021/03/25 15:46:01;;;;;;;6.42;3.58;;;;;;;10.25;23.34;100406.44;1704331;82;21516;-64
2021/03/25 15:48:30;;;;;;;7.40;3.20;;;;;;;10.05;23.50;100405.36;1700913;83;21443;-62
2021/03/25 15:51:02;;;;;;;8.05;3.45;;;;;;;9.88;23.59;100406.12;1701272;83;21392;-62
2021/03/25 15:53:32;;;;;;;7.62;2.95;;;;;;;9.67;23.81;100405.52;1704417;82;21387;-63
2021/03/25 15:56:05;;;;;;;16.90;3.05;;;;;;;9.48;23.98;100404.76;1701791;83;21568;-62
2021/03/25 15:58:33;;;;;;;9.73;3.33;;;;;;;9.33;24.24;100398.45;1712344;83;21365;-62
2021/03/25 16:01:05;;;;;;;10.75;4.05;;;;;;;9.22;24.45;100403.88;1707873;84;21155;-62
2021/03/25 16:03:36;;;;;;;7.72;3.22;;;;;;;9.09;24.57;100405.88;1706550;83;21221;-60
2021/03/25 16:06:06;;;;;;;7.25;3.25;;;;;;;8.99;24.73;100405.31;1696424;84;21180;-63
2021/03/25 16:08:36;;;;;;;10.28;3.25;;;;;;;8.89;25.02;100403.37;1696018;84;21159;-65
2021/03/25 16:11:06;;;;;;;8.35;3.02;;;;;;;8.77;25.23;100404.86;1696142;83;21216;-62
2021/03/25 16:13:38;;;;;;;7.03;2.77;;;;;;;8.66;25.31;100412.14;1696723;82;21183;-64
2021/03/25 16:16:11;;;;;;;5.65;2.50;;;;;;;8.56;25.39;100417.34;1674656;83;21425;-64
2021/03/25 16:18:39;;;;;;;20.80;8.23;;;;;;;8.48;25.40;100409.22;1696250;84;21577;-64
2021/03/25 16:21:08;;;;;;;32.98;16.17;;;;;;;8.40;25.55;100411.99;1712915;83;21858;-64
2021/03/25 16:23:38;;;;;;;9.20;2.87;;;;;;;8.35;25.77;100409.48;1724904;82;21197;-63
2021/03/25 16:26:10;;;;;;;6.90;3.45;;;;;;;8.28;25.80;100410.17;1724451;83;21313;-61
2021/03/25 16:28:38;;;;;;;4.78;2.35;;;;;;;8.22;25.75;100415.00;1723851;83;21197;-61
2021/03/25 16:31:06;;;;;;;7.00;2.42;;;;;;;8.14;25.76;100414.21;1719957;83;21217;-62
2021/03/25 16:33:34;;;;;;;5.47;2.52;;;;;;;8.07;25.97;100418.70;1716794;83;21210;-60
2021/03/25 16:36:02;;;;;;;9.80;3.72;;;;;;;8.00;25.94;100417.72;1719590;83;21150;-61
2021/03/25 16:38:30;;;;;;;8.98;3.55;;;;;;;7.93;26.16;100419.81;1703669;82;21181;-62
2021/03/25 16:40:59;;;;;;;9.30;3.25;;;;;;;7.90;26.28;100423.41;1700921;83;21352;-62
2021/03/25 16:43:30;;;;;;;10.72;4.10;;;;;;;7.86;26.42;100425.66;1701105;83;21194;-60
2021/03/25 16:46:06;;;;;;;7.10;3.30;;;;;;;7.80;26.69;100432.30;1691561;84;21284;-60
2021/03/25 16:48:35;;;;;;;12.30;3.02;;;;;;;7.72;26.84;100435.93;1700890;84;21976;-63
2021/03/25 16:51:07;;;;;;;13.20;3.75;;;;;;;7.67;27.25;100437.48;1691004;83;21186;-64
2021/03/25 16:53:34;;;;;;;14.15;4.42;;;;;;;7.59;28.14;100443.84;1693992;84;21211;-62
2021/03/25 16:56:04;;;;;;;13.50;5.37;;;;;;;7.51;28.46;100444.72;1660795;86;21316;-62
2021/03/25 16:58:32;;;;;;;16.90;3.90;;;;;;;7.44;28.81;100449.18;1688755;84;21193;-62
2021/03/25 17:00:59;;;;;;;10.40;4.08;;;;;;;7.35;29.18;100446.66;1693489;84;21431;-63
2021/03/25 17:03:28;;;;;;;10.63;3.80;;;;;;;7.20;29.44;100459.66;1696217;83;21220;-63
2021/03/25 17:05:57;;;;;;;11.00;3.75;;;;;;;7.06;29.63;100460.34;1696149;84;21206;-63
2021/03/25 17:08:27;;;;;;;10.58;3.52;;;;;;;6.96;29.62;100461.89;1679537;84;21162;-62
2021/03/25 17:10:56;;;;;;;20.17;4.00;;;;;;;6.89;30.35;100462.75;1707232;82;21193;-63
2021/03/25 17:13:28;;;;;;;14.38;3.83;;;;;;;6.79;30.93;100460.72;1702298;82;21906;-62
2021/03/25 17:15:58;;;;;;;11.57;3.42;;;;;;;6.70;31.17;100472.64;1721478;82;21264;-62
2021/03/25 17:18:27;;;;;;;14.33;5.35;;;;;;;6.62;31.19;100465.33;1725756;83;21945;-67
2021/03/25 17:20:58;;;;;;;12.80;4.40;;;;;;;6.56;31.17;100467.37;1696300;83;21184;-62
2021/03/25 17:23:30;;;;;;;13.22;4.58;;;;;;;6.51;31.24;100476.56;1692513;84;21185;-62
2021/03/25 17:25:58;;;;;;;22.42;4.03;;;;;;;6.40;31.60;100483.16;1696259;84;21445;-63
2021/03/25 17:28:30;;;;;;;16.45;4.25;;;;;;;6.30;32.21;100482.47;1700786;83;21153;-63
2021/03/25 17:30:58;;;;;;;14.18;3.75;;;;;;;6.19;32.75;100478.20;1699074;82;21287;-64
2021/03/25 17:33:27;;;;;;;23.42;4.87;;;;;;;6.10;33.08;100479.20;1717273;82;21137;-62
2021/03/25 17:35:55;;;;;;;24.65;5.33;;;;;;;6.03;33.22;100480.89;1701966;83;21268;-62
2021/03/25 17:38:23;;;;;;;14.15;4.28;;;;;;;5.99;33.31;100487.17;1698516;84;21190;-63
2021/03/25 17:40:51;;;;;;;19.52;5.85;;;;;;;5.93;33.30;100489.19;1691610;84;21200;-64
2021/03/25 17:43:22;;;;;;;10.63;4.62;;;;;;;5.86;33.53;100492.20;1661755;85;21137;-63
2021/03/25 17:45:49;;;;;;;17.95;5.60;;;;;;;5.81;33.90;100488.23;1679252;84;21926;-63
2021/03/25 17:48:22;;;;;;;14.93;5.25;;;;;;;5.79;34.39;100492.48;1660933;86;21158;-63
2021/03/25 17:50:51;;;;;;;25.25;6.25;;;;;;;5.75;34.33;100496.55;1636758;87;21479;-63
2021/03/25 17:53:20;;;;;;;28.12;6.00;;;;;;;5.70;34.25;100498.91;1662824;85;21142;-64
2021/03/25 17:55:49;;;;;;;15.35;4.90;;;;;;;5.64;34.28;100495.48;1663607;86;21236;-64
2021/03/25 17:58:16;;;;;;;18.40;4.75;;;;;;;5.57;34.49;100487.64;1679489;85;21456;-63
2021/03/25 18:00:45;;;;;;;19.37;6.20;;;;;;;5.50;34.48;100491.52;1690310;84;21444;-68
2021/03/25 18:03:17;;;;;;;20.35;5.12;;;;;;;5.45;34.47;100497.09;1679684;84;21454;-66
2021/03/25 18:05:51;;;;;;;19.55;6.30;;;;;;;5.38;34.77;100500.46;1686192;85;21217;-67
2021/03/25 18:08:21;;;;;;;21.37;8.35;;;;;;;5.34;35.25;100500.44;1680429;84;21597;-67
2021/03/25 18:10:51;;;;;;;18.62;6.05;;;;;;;5.29;35.79;100504.15;1682205;83;21147;-65
2021/03/25 18:13:26;;;;;;;26.65;9.03;;;;;;;5.24;37.20;100506.50;1695162;84;21280;-65
2021/03/25 18:16:00;;;;;;;20.27;6.08;;;;;;;5.21;37.33;100511.40;1679753;84;21340;-65
2021/03/25 18:18:34;;;;;;;11.33;4.70;;;;;;;5.12;36.67;100515.05;1662662;86;21840;-65
2021/03/25 18:21:09;;;;;;;13.05;5.30;;;;;;;5.02;36.65;100507.00;1676784;85;21281;-65
2021/03/25 18:23:37;;;;;;;13.28;3.85;;;;;;;4.98;36.91;100524.63;1691294;84;21437;-65
2021/03/25 18:26:05;;;;;;;16.23;3.92;;;;;;;4.91;37.06;100518.97;1692771;84;21397;-64
2021/03/25 18:28:33;;;;;;;27.17;12.05;;;;;;;4.86;37.03;100522.67;1692105;84;21446;-64
2021/03/25 18:31:01;;;;;;;15.08;5.20;;;;;;;4.82;36.87;100521.78;1684166;84;22219;-65